Time;durP1;ratioP1;P1;durP2;ratioP2;P2;SDS_P1;SDS_P2;PMS_P1;PMS_P2;Temp;Humidity;BMP_temperature;BMP_pressure;BME280_temperature;BME280_humidity;BME280_pressure;Samples;Min_cycle;Max_cycle;Signal;HPM_P1;HPM_P2
2022/10/06 00:00:21;;;;;;;113.97;82.47;;;;;;;;;;4981340;28;20266;-42
2022/10/06 00:02:47;;;;;;;102.50;77.20;;;;;;;;;;4976194;28;21160;-42
2022/10/06 00:05:13;;;;;;;105.60;76.60;;;;;;;;;;4980572;28;20686;-41
2022/10/06 00:07:39;;;;;;;98.57;73.27;;;;;;;;;;4980395;28;20223;-44
2022/10/06 00:10:06;;;;;;;94.30;69.97;;;;;;;;;;4982339;28;20185;-44
2022/10/06 00:12:40;;;;;;;90.00;67.83;;;;;;;;;;4986032;28;20539;-44
2022/10/06 00:15:07;;;;;;;93.53;68.83;;;;;;;;;;4982322;28;20577;-41
2022/10/06 00:17:33;;;;;;;91.37;67.17;;;;;;;;;;4979019;28;20859;-43
2022/10/06 00:19:59;;;;;;;78.77;59.77;;;;;;;;;;4980875;28;20702;-43
2022/10/06 00:22:25;;;;;;;79.90;58.07;;;;;;;;;;4979470;28;20307;-41
2022/10/06 00:24:51;;;;;;;84.70;62.73;;;;;;;;;;4977537;28;20213;-44
2022/10/06 00:27:17;;;;;;;80.67;57.80;;;;;;;;;;4982415;28;20205;-43
2022/10/06 00:29:43;;;;;;;75.07;57.50;;;;;;;;;;4984735;28;20181;-42
2022/10/06 00:32:10;;;;;;;70.00;53.17;;;;;;;;;;4984539;28;20713;-40
2022/10/06 00:34:36;;;;;;;71.40;56.00;;;;;;;;;;4983347;28;21007;-42
2022/10/06 00:37:02;;;;;;;70.47;53.50;;;;;;;;;;4979262;28;20640;-42
2022/10/06 00:39:28;;;;;;;70.53;52.90;;;;;;;;;;4977213;28;20223;-45
2022/10/06 00:41:54;;;;;;;63.90;49.33;;;;;;;;;;4980632;28;20180;-44
2022/10/06 00:44:21;;;;;;;64.47;48.63;;;;;;;;;;4982845;28;20822;-43
2022/10/06 00:46:55;;;;;;;65.33;50.57;;;;;;;;;;4976372;28;20307;-45
2022/10/06 00:49:22;;;;;;;71.63;52.67;;;;;;;;;;4976848;28;20422;-42
2022/10/06 00:51:50;;;;;;;60.53;47.80;;;;;;;;;;4978556;28;20949;-42
2022/10/06 00:54:17;;;;;;;62.80;48.10;;;;;;;;;;4979055;28;20987;-42
2022/10/06 00:56:43;;;;;;;63.50;47.30;;;;;;;;;;4981063;28;20677;-42
2022/10/06 00:59:11;;;;;;;67.17;49.97;;;;;;;;;;4982131;28;20185;-43
2022/10/06 01:01:38;;;;;;;72.50;53.53;;;;;;;;;;4979236;28;20843;-44
2022/10/06 01:04:07;;;;;;;61.00;46.73;;;;;;;;;;4977728;28;20842;-43
2022/10/06 01:06:47;;;;;;;58.97;47.90;;;;;;;;;;4977730;28;20391;-43
2022/10/06 01:09:15;;;;;;;67.33;50.17;;;;;;;;;;4981185;28;20664;-43
2022/10/06 01:11:41;;;;;;;62.93;48.83;;;;;;;;;;4981237;28;20302;-43
2022/10/06 01:14:07;;;;;;;62.07;46.70;;;;;;;;;;4978638;28;20223;-43
2022/10/06 01:16:36;;;;;;;59.80;45.80;;;;;;;;;;4971468;28;20191;-41
2022/10/06 01:19:04;;;;;;;61.63;47.57;;;;;;;;;;4978898;28;20226;-42
2022/10/06 01:21:34;;;;;;;53.33;42.97;;;;;;;;;;4978140;28;20596;-42
2022/10/06 01:24:01;;;;;;;56.80;42.87;;;;;;;;;;4973644;28;20733;-42
2022/10/06 01:26:28;;;;;;;57.03;42.77;;;;;;;;;;4979569;28;20843;-42
2022/10/06 01:28:55;;;;;;;52.70;42.30;;;;;;;;;;4982982;28;20780;-42
2022/10/06 01:31:21;;;;;;;51.53;42.13;;;;;;;;;;4982856;28;20223;-43
2022/10/06 01:33:50;;;;;;;63.27;48.63;;;;;;;;;;4978081;28;20397;-42
2022/10/06 01:36:17;;;;;;;55.50;43.20;;;;;;;;;;4977722;28;20173;-43
2022/10/06 01:38:43;;;;;;;64.07;46.57;;;;;;;;;;4983373;28;20181;-42
2022/10/06 01:41:09;;;;;;;56.77;45.83;;;;;;;;;;4980404;28;20212;-42
2022/10/06 01:43:35;;;;;;;59.47;42.20;;;;;;;;;;4983277;28;20259;-42
2022/10/06 01:46:01;;;;;;;52.67;42.23;;;;;;;;;;4982523;28;20712;-42
2022/10/06 01:48:27;;;;;;;50.77;40.70;;;;;;;;;;4977582;28;20180;-42
2022/10/06 01:50:54;;;;;;;54.20;43.03;;;;;;;;;;4983137;28;20173;-42
2022/10/06 01:53:20;;;;;;;53.10;41.60;;;;;;;;;;4983542;28;20192;-41
2022/10/06 01:55:46;;;;;;;59.80;46.03;;;;;;;;;;4979525;28;20504;-43
2022/10/06 01:58:13;;;;;;;57.47;44.47;;;;;;;;;;4983012;28;20488;-41
2022/10/06 02:00:39;;;;;;;56.73;41.60;;;;;;;;;;4981897;28;20173;-42
2022/10/06 02:03:06;;;;;;;55.87;43.17;;;;;;;;;;4985553;28;20621;-42
2022/10/06 02:05:32;;;;;;;65.27;49.00;;;;;;;;;;4983106;28;20628;-42
2022/10/06 02:07:58;;;;;;;62.73;47.97;;;;;;;;;;4982735;28;20507;-41
2022/10/06 02:10:24;;;;;;;60.27;46.17;;;;;;;;;;4979166;28;20667;-42
2022/10/06 02:12:51;;;;;;;65.33;49.53;;;;;;;;;;4981839;28;20181;-42
2022/10/06 02:15:17;;;;;;;63.13;47.03;;;;;;;;;;4983955;28;20192;-42
2022/10/06 02:17:43;;;;;;;64.70;47.77;;;;;;;;;;4979405;28;20397;-42
2022/10/06 02:20:10;;;;;;;63.70;46.83;;;;;;;;;;4979747;28;20550;-42
2022/10/06 02:22:40;;;;;;;57.17;44.27;;;;;;;;;;4978103;28;20199;-42
2022/10/06 02:25:06;;;;;;;62.00;46.73;;;;;;;;;;4980407;28;20184;-42
2022/10/06 02:27:32;;;;;;;60.53;45.23;;;;;;;;;;4983389;28;21266;-42
2022/10/06 02:29:58;;;;;;;59.90;46.57;;;;;;;;;;4978468;28;20740;-40
2022/10/06 02:32:31;;;;;;;69.83;48.27;;;;;;;;;;4977168;28;20625;-42
2022/10/06 02:34:59;;;;;;;63.67;45.97;;;;;;;;;;4974513;28;20211;-42
2022/10/06 02:37:25;;;;;;;59.37;45.07;;;;;;;;;;4975829;28;20286;-41
2022/10/06 02:39:51;;;;;;;62.30;46.33;;;;;;;;;;4977602;28;20177;-42
2022/10/06 02:42:18;;;;;;;58.70;44.60;;;;;;;;;;4978615;28;20736;-41
2022/10/06 02:44:44;;;;;;;61.20;45.17;;;;;;;;;;4977776;28;20195;-42
2022/10/06 02:47:14;;;;;;;60.07;44.17;;;;;;;;;;4975369;28;20300;-42
2022/10/06 02:49:41;;;;;;;55.93;43.03;;;;;;;;;;4975565;28;20185;-44
2022/10/06 02:52:07;;;;;;;63.97;47.27;;;;;;;;;;4977575;28;20759;-43
2022/10/06 02:54:35;;;;;;;63.77;47.60;;;;;;;;;;4981908;28;20924;-43
2022/10/06 02:57:01;;;;;;;62.37;46.33;;;;;;;;;;4981879;28;20346;-43
2022/10/06 02:59:27;;;;;;;70.33;49.47;;;;;;;;;;4980565;28;20191;-42
2022/10/06 03:01:53;;;;;;;65.23;47.47;;;;;;;;;;4979762;28;20181;-42
2022/10/06 03:04:20;;;;;;;62.03;44.57;;;;;;;;;;4980893;28;20181;-42
2022/10/06 03:06:46;;;;;;;65.47;49.17;;;;;;;;;;4985243;28;20649;-42
2022/10/06 03:09:12;;;;;;;64.13;46.77;;;;;;;;;;4982466;28;20481;-43
2022/10/06 03:11:39;;;;;;;59.73;44.47;;;;;;;;;;4982383;28;20481;-41
2022/10/06 03:14:06;;;;;;;62.30;46.10;;;;;;;;;;4981363;28;21292;-42
2022/10/06 03:16:37;;;;;;;52.80;41.10;;;;;;;;;;4982660;28;21245;-42
2022/10/06 03:19:04;;;;;;;54.60;41.67;;;;;;;;;;4982488;28;20976;-42
2022/10/06 03:21:32;;;;;;;58.13;43.17;;;;;;;;;;4984360;28;20944;-42
2022/10/06 03:23:59;;;;;;;62.60;45.27;;;;;;;;;;4983941;28;20192;-42
2022/10/06 03:26:27;;;;;;;54.97;41.53;;;;;;;;;;4983256;28;20301;-42
2022/10/06 03:28:54;;;;;;;62.23;45.00;;;;;;;;;;4980931;28;20236;-42
2022/10/06 03:31:21;;;;;;;58.30;43.53;;;;;;;;;;4982401;28;20177;-42
2022/10/06 03:33:47;;;;;;;53.77;41.27;;;;;;;;;;4984145;28;20185;-42
2022/10/06 03:36:14;;;;;;;56.40;43.10;;;;;;;;;;4980444;28;21101;-42
2022/10/06 03:38:40;;;;;;;57.67;42.33;;;;;;;;;;4979193;28;20211;-42
2022/10/06 03:41:08;;;;;;;62.17;44.67;;;;;;;;;;4982174;28;20592;-42
2022/10/06 03:43:34;;;;;;;54.43;41.37;;;;;;;;;;4982194;28;20442;-42
2022/10/06 03:46:01;;;;;;;57.57;43.43;;;;;;;;;;4986362;28;20192;-42
2022/10/06 03:48:28;;;;;;;56.93;42.60;;;;;;;;;;4982365;28;20590;-43
2022/10/06 03:50:56;;;;;;;53.50;41.07;;;;;;;;;;4980753;28;20177;-42
2022/10/06 03:53:24;;;;;;;50.90;39.40;;;;;;;;;;4978018;28;20185;-42
2022/10/06 03:55:58;;;;;;;57.10;42.07;;;;;;;;;;4974326;28;20304;-42
2022/10/06 03:58:24;;;;;;;63.27;45.77;;;;;;;;;;4978371;28;21179;-42
2022/10/06 04:00:57;;;;;;;59.23;44.03;;;;;;;;;;4977375;28;20177;-42
2022/10/06 04:03:23;;;;;;;58.60;44.50;;;;;;;;;;4974167;28;20752;-42
2022/10/06 04:05:54;;;;;;;56.10;40.73;;;;;;;;;;4975366;28;20180;-42
2022/10/06 04:08:20;;;;;;;53.90;40.07;;;;;;;;;;4979272;28;20211;-42
2022/10/06 04:10:46;;;;;;;61.30;43.13;;;;;;;;;;4975937;28;20492;-42
2022/10/06 04:13:14;;;;;;;57.77;42.17;;;;;;;;;;4976765;28;20311;-42
2022/10/06 04:15:40;;;;;;;52.20;39.73;;;;;;;;;;4974070;28;20460;-42
2022/10/06 04:18:06;;;;;;;52.17;38.63;;;;;;;;;;4977368;28;20188;-42
2022/10/06 04:20:32;;;;;;;51.60;39.03;;;;;;;;;;4983272;28;20205;-42
2022/10/06 04:22:59;;;;;;;56.87;42.80;;;;;;;;;;4979198;28;20211;-43
2022/10/06 04:25:25;;;;;;;59.17;44.50;;;;;;;;;;4978646;28;20721;-42
2022/10/06 04:27:52;;;;;;;58.80;42.17;;;;;;;;;;4978898;28;20711;-41
2022/10/06 04:30:18;;;;;;;53.43;41.73;;;;;;;;;;4981195;28;20189;-42
2022/10/06 04:32:44;;;;;;;59.30;43.33;;;;;;;;;;4983559;28;20466;-42
2022/10/06 04:35:11;;;;;;;58.10;43.30;;;;;;;;;;4982444;28;20184;-42
2022/10/06 04:37:37;;;;;;;55.27;41.83;;;;;;;;;;4979540;28;21171;-42
2022/10/06 04:40:04;;;;;;;54.10;40.07;;;;;;;;;;4978268;28;20701;-42
2022/10/06 04:42:30;;;;;;;55.50;42.27;;;;;;;;;;4983295;28;20780;-41
2022/10/06 04:44:56;;;;;;;52.57;40.33;;;;;;;;;;4981062;28;20181;-42
2022/10/06 04:47:22;;;;;;;65.40;46.40;;;;;;;;;;4983248;28;20552;-43
2022/10/06 04:49:48;;;;;;;57.97;42.53;;;;;;;;;;4977521;28;20188;-42
2022/10/06 04:52:14;;;;;;;54.43;41.07;;;;;;;;;;4979816;28;20181;-42
2022/10/06 04:54:40;;;;;;;51.77;39.87;;;;;;;;;;4980797;28;20791;-43
2022/10/06 04:57:06;;;;;;;52.10;39.63;;;;;;;;;;4985346;28;20208;-42
2022/10/06 05:02:19;;;;;;;52.37;41.37;;;;;;;;;;4980376;28;20602;-41
2022/10/06 05:04:45;;;;;;;55.77;41.70;;;;;;;;;;4979097;28;20283;-42
2022/10/06 05:07:11;;;;;;;53.13;41.07;;;;;;;;;;4981846;28;20602;-42
2022/10/06 05:09:37;;;;;;;59.00;41.63;;;;;;;;;;4981063;28;20614;-41
2022/10/06 05:12:03;;;;;;;51.33;39.63;;;;;;;;;;4982352;28;20189;-42
2022/10/06 05:14:32;;;;;;;58.77;43.83;;;;;;;;;;4982617;28;20590;-41
2022/10/06 05:16:58;;;;;;;57.97;41.60;;;;;;;;;;4983623;28;20189;-42
2022/10/06 05:19:24;;;;;;;54.50;40.90;;;;;;;;;;4984194;28;20715;-42
2022/10/06 05:21:50;;;;;;;62.17;47.17;;;;;;;;;;4984535;28;20184;-42
2022/10/06 05:24:16;;;;;;;63.03;44.60;;;;;;;;;;4985192;28;20659;-42
2022/10/06 05:26:42;;;;;;;66.87;46.73;;;;;;;;;;4984737;28;20291;-42
2022/10/06 05:29:08;;;;;;;55.63;42.93;;;;;;;;;;4986242;28;20617;-42
2022/10/06 05:31:41;;;;;;;56.07;42.53;;;;;;;;;;4978358;28;21151;-42
2022/10/06 05:34:07;;;;;;;55.63;40.67;;;;;;;;;;4982486;28;20752;-42
2022/10/06 05:36:34;;;;;;;63.43;43.13;;;;;;;;;;4981573;28;20697;-42
2022/10/06 05:39:00;;;;;;;56.43;41.83;;;;;;;;;;4982329;28;20181;-42
2022/10/06 05:41:30;;;;;;;60.43;43.07;;;;;;;;;;4981259;28;20576;-45
2022/10/06 05:43:57;;;;;;;65.43;45.63;;;;;;;;;;4982824;28;20904;-43
2022/10/06 05:46:27;;;;;;;62.23;44.93;;;;;;;;;;4986668;28;20871;-42
2022/10/06 05:48:54;;;;;;;59.20;44.30;;;;;;;;;;4983215;28;20490;-42
2022/10/06 05:51:21;;;;;;;70.83;48.40;;;;;;;;;;4982608;28;20185;-42
2022/10/06 05:53:47;;;;;;;67.67;46.03;;;;;;;;;;4987514;28;20219;-42
2022/10/06 05:56:18;;;;;;;65.40;47.30;;;;;;;;;;4989460;28;20187;-42
2022/10/06 05:58:46;;;;;;;77.10;49.53;;;;;;;;;;4991233;28;20177;-42
2022/10/06 06:01:16;;;;;;;69.57;47.43;;;;;;;;;;4989913;28;20227;-43
2022/10/06 06:03:43;;;;;;;71.67;50.07;;;;;;;;;;4989484;28;20517;-44
2022/10/06 06:06:22;;;;;;;72.80;48.73;;;;;;;;;;4987857;28;21010;-45
2022/10/06 06:08:52;;;;;;;76.50;49.63;;;;;;;;;;4989166;28;20247;-45
2022/10/06 06:11:24;;;;;;;67.50;47.60;;;;;;;;;;4984624;28;20495;-45
2022/10/06 06:13:50;;;;;;;65.67;47.73;;;;;;;;;;4990156;28;20412;-43
2022/10/06 06:16:16;;;;;;;78.53;54.17;;;;;;;;;;4986106;28;20170;-41
2022/10/06 06:18:42;;;;;;;70.73;50.30;;;;;;;;;;4989048;28;20536;-42
2022/10/06 06:21:09;;;;;;;65.27;48.40;;;;;;;;;;4985362;28;20502;-42
2022/10/06 06:23:39;;;;;;;68.67;49.23;;;;;;;;;;4986208;28;20395;-42
2022/10/06 06:26:07;;;;;;;70.70;50.40;;;;;;;;;;4982252;28;20173;-43
2022/10/06 06:28:34;;;;;;;70.97;51.70;;;;;;;;;;4989622;28;20483;-43
2022/10/06 06:31:05;;;;;;;71.97;51.53;;;;;;;;;;4985776;28;20188;-42
2022/10/06 06:33:31;;;;;;;69.60;51.63;;;;;;;;;;4983128;28;20165;-42
2022/10/06 06:36:02;;;;;;;68.73;51.53;;;;;;;;;;4989409;28;20386;-42
2022/10/06 06:38:28;;;;;;;76.57;58.17;;;;;;;;;;4976208;28;20183;-43
2022/10/06 06:40:54;;;;;;;80.80;58.17;;;;;;;;;;4985116;28;20193;-41
2022/10/06 06:43:20;;;;;;;81.13;59.47;;;;;;;;;;4981518;28;20192;-42
2022/10/06 06:45:46;;;;;;;78.80;55.93;;;;;;;;;;4979590;28;20177;-43
2022/10/06 06:48:16;;;;;;;88.33;61.23;;;;;;;;;;4985169;28;20445;-43
2022/10/06 06:50:42;;;;;;;84.23;58.93;;;;;;;;;;4985423;28;20740;-42
2022/10/06 06:53:09;;;;;;;84.87;58.43;;;;;;;;;;4985300;28;20270;-42
2022/10/06 06:55:35;;;;;;;96.97;64.60;;;;;;;;;;4982183;28;20177;-42
2022/10/06 06:58:01;;;;;;;92.30;60.43;;;;;;;;;;4985682;28;20188;-42
2022/10/06 07:00:27;;;;;;;88.53;60.67;;;;;;;;;;4984383;28;20605;-43
2022/10/06 07:02:59;;;;;;;86.63;60.30;;;;;;;;;;4986757;28;20340;-43
2022/10/06 07:05:25;;;;;;;90.23;59.17;;;;;;;;;;4985581;28;20223;-42
2022/10/06 07:07:51;;;;;;;91.20;61.93;;;;;;;;;;4983896;28;20326;-43
2022/10/06 07:10:17;;;;;;;87.60;59.03;;;;;;;;;;4982081;28;20172;-43
2022/10/06 07:12:44;;;;;;;81.60;58.07;;;;;;;;;;4986236;28;20180;-43
2022/10/06 07:26:09;;;;;;;83.00;57.97;;;;;;;;;;4985812;28;20668;-42
2022/10/06 07:28:35;;;;;;;73.60;54.00;;;;;;;;;;4983562;28;20298;-42
2022/10/06 07:31:02;;;;;;;69.53;52.23;;;;;;;;;;4980953;28;20180;-44
2022/10/06 07:33:31;;;;;;;75.13;53.97;;;;;;;;;;4985174;28;20602;-44
2022/10/06 07:35:57;;;;;;;65.07;48.97;;;;;;;;;;4982670;28;20174;-43
2022/10/06 07:38:24;;;;;;;71.57;51.17;;;;;;;;;;4984563;28;20354;-44
2022/10/06 07:40:54;;;;;;;68.87;49.87;;;;;;;;;;4986029;28;20523;-43
2022/10/06 07:43:20;;;;;;;56.70;44.60;;;;;;;;;;4988393;28;20196;-42
2022/10/06 07:45:48;;;;;;;63.63;49.40;;;;;;;;;;4986184;28;20664;-43
2022/10/06 07:48:19;;;;;;;61.30;47.07;;;;;;;;;;4984495;28;20916;-43
2022/10/06 07:50:47;;;;;;;60.33;45.77;;;;;;;;;;4981570;28;20204;-41
2022/10/06 07:53:13;;;;;;;58.10;44.97;;;;;;;;;;4984520;28;20601;-43
2022/10/06 07:55:40;;;;;;;59.03;45.30;;;;;;;;;;4981531;28;20506;-42
2022/10/06 07:58:10;;;;;;;58.00;45.30;;;;;;;;;;4979891;28;20180;-42
2022/10/06 08:00:36;;;;;;;57.47;44.73;;;;;;;;;;4983083;28;20569;-43
2022/10/06 08:03:02;;;;;;;52.30;41.33;;;;;;;;;;4989436;28;20177;-42
2022/10/06 08:05:28;;;;;;;50.30;40.27;;;;;;;;;;4982794;28;20186;-42
2022/10/06 08:07:55;;;;;;;57.37;43.77;;;;;;;;;;4983237;28;20729;-42
2022/10/06 08:10:22;;;;;;;51.60;40.97;;;;;;;;;;4979941;28;20988;-42
2022/10/06 08:12:48;;;;;;;43.43;35.07;;;;;;;;;;4983000;28;20272;-42
2022/10/06 08:15:14;;;;;;;52.03;39.40;;;;;;;;;;4983678;28;20307;-42
2022/10/06 08:17:40;;;;;;;51.27;39.53;;;;;;;;;;4983785;28;20204;-42
2022/10/06 08:25:42;;;;;;;51.83;39.53;;;;;;;;;;4986491;28;20277;-43
2022/10/06 08:28:11;;;;;;;54.23;40.50;;;;;;;;;;4990325;28;20219;-43
2022/10/06 08:30:37;;;;;;;43.17;33.83;;;;;;;;;;4984896;28;20184;-42
2022/10/06 08:33:04;;;;;;;47.47;36.80;;;;;;;;;;4981953;28;20472;-43
2022/10/06 08:35:30;;;;;;;45.70;37.63;;;;;;;;;;4981955;28;20303;-43
2022/10/06 08:37:56;;;;;;;43.47;35.27;;;;;;;;;;4986295;28;20180;-43
2022/10/06 08:40:23;;;;;;;47.03;37.80;;;;;;;;;;5000420;28;20181;-41
2022/10/06 08:42:50;;;;;;;46.40;35.77;;;;;;;;;;4998116;28;20791;-42
2022/10/06 08:45:26;;;;;;;52.17;39.37;;;;;;;;;;4983959;28;20184;-43
2022/10/06 08:48:00;;;;;;;47.13;37.50;;;;;;;;;;4984558;28;20733;-43
2022/10/06 08:50:27;;;;;;;44.37;37.13;;;;;;;;;;4984496;28;20201;-43
2022/10/06 08:53:01;;;;;;;42.60;35.40;;;;;;;;;;4981882;28;20570;-43
2022/10/06 08:55:34;;;;;;;43.73;34.77;;;;;;;;;;4985246;28;20188;-43
2022/10/06 08:58:12;;;;;;;37.33;31.83;;;;;;;;;;4985688;28;20741;-43
2022/10/06 09:00:38;;;;;;;42.97;33.90;;;;;;;;;;4985119;28;20532;-43
2022/10/06 09:03:06;;;;;;;42.50;34.80;;;;;;;;;;4982405;28;20386;-43
2022/10/06 09:05:33;;;;;;;37.17;29.90;;;;;;;;;;4981861;28;20831;-41
2022/10/06 09:07:59;;;;;;;40.23;31.80;;;;;;;;;;4988856;28;20261;-43
2022/10/06 09:10:32;;;;;;;34.10;28.67;;;;;;;;;;4985385;28;20188;-42
2022/10/06 09:13:04;;;;;;;35.60;28.30;;;;;;;;;;4980816;28;20629;-43
2022/10/06 09:15:40;;;;;;;33.63;29.77;;;;;;;;;;4984205;28;20902;-43
2022/10/06 09:18:17;;;;;;;37.87;28.27;;;;;;;;;;4987607;28;20553;-43
2022/10/06 09:20:43;;;;;;;33.90;27.20;;;;;;;;;;4989452;28;20343;-43
2022/10/06 09:23:13;;;;;;;32.70;25.30;;;;;;;;;;4984398;28;20400;-43
2022/10/06 09:25:39;;;;;;;33.80;26.43;;;;;;;;;;4983928;28;20625;-43
2022/10/06 09:28:09;;;;;;;29.90;24.67;;;;;;;;;;4981796;28;20460;-41
2022/10/06 09:30:36;;;;;;;36.87;29.63;;;;;;;;;;4985456;28;20192;-43
2022/10/06 09:33:04;;;;;;;31.93;26.40;;;;;;;;;;4985050;28;20427;-43
2022/10/06 09:35:31;;;;;;;33.80;28.73;;;;;;;;;;4984370;28;21198;-43
2022/10/06 09:38:04;;;;;;;34.37;25.93;;;;;;;;;;4984383;28;20416;-43
2022/10/06 09:40:36;;;;;;;36.43;30.73;;;;;;;;;;4983712;28;20222;-43
2022/10/06 09:43:04;;;;;;;43.73;32.23;;;;;;;;;;4986845;28;20346;-43
2022/10/06 09:45:30;;;;;;;37.23;30.77;;;;;;;;;;4984412;28;20292;-42
2022/10/06 09:48:11;;;;;;;34.17;27.60;;;;;;;;;;4983212;28;20759;-42
2022/10/06 09:50:37;;;;;;;41.50;29.70;;;;;;;;;;4983955;28;20876;-42
2022/10/06 09:53:05;;;;;;;31.43;25.73;;;;;;;;;;4986308;28;20185;-43
2022/10/06 09:55:36;;;;;;;34.97;26.73;;;;;;;;;;4985391;28;20168;-43
2022/10/06 09:58:14;;;;;;;31.57;25.30;;;;;;;;;;4986509;28;20922;-43
2022/10/06 10:00:46;;;;;;;28.17;24.43;;;;;;;;;;4986584;28;20287;-42
2022/10/06 10:03:12;;;;;;;31.83;24.93;;;;;;;;;;4986552;28;20180;-43
2022/10/06 10:05:49;;;;;;;26.70;23.70;;;;;;;;;;4989445;28;20176;-43
2022/10/06 10:08:23;;;;;;;30.70;24.87;;;;;;;;;;4988896;28;20213;-46
2022/10/06 10:10:51;;;;;;;30.77;25.47;;;;;;;;;;4987319;28;20641;-43
2022/10/06 10:13:20;;;;;;;33.17;27.63;;;;;;;;;;4985228;28;20228;-43
2022/10/06 10:16:04;;;;;;;32.03;26.57;;;;;;;;;;4985633;28;20675;-43
2022/10/06 10:18:31;;;;;;;33.20;27.77;;;;;;;;;;4991022;28;20212;-43
2022/10/06 10:20:58;;;;;;;33.80;27.33;;;;;;;;;;4986561;28;20517;-43
2022/10/06 10:23:29;;;;;;;33.87;27.70;;;;;;;;;;4986188;28;20266;-42
2022/10/06 10:25:57;;;;;;;33.30;27.23;;;;;;;;;;4984692;28;20679;-43
2022/10/06 10:28:31;;;;;;;34.00;27.93;;;;;;;;;;4991487;28;20562;-43
2022/10/06 10:31:10;;;;;;;37.97;28.83;;;;;;;;;;4988848;28;20209;-42
2022/10/06 10:33:36;;;;;;;37.67;28.73;;;;;;;;;;4987549;28;20328;-41
2022/10/06 10:36:02;;;;;;;33.63;27.33;;;;;;;;;;4990261;28;20165;-42
2022/10/06 10:38:31;;;;;;;34.07;28.03;;;;;;;;;;4990825;28;20672;-45
2022/10/06 10:41:17;;;;;;;35.23;28.03;;;;;;;;;;4986438;28;20529;-44
2022/10/06 10:43:50;;;;;;;33.03;27.33;;;;;;;;;;4983845;28;20186;-44
2022/10/06 10:46:19;;;;;;;35.50;28.93;;;;;;;;;;4978289;28;21292;-43
2022/10/06 10:48:51;;;;;;;37.60;28.70;;;;;;;;;;4989624;28;20209;-43
2022/10/06 10:51:28;;;;;;;30.37;25.20;;;;;;;;;;4988107;28;20376;-43
2022/10/06 10:54:00;;;;;;;33.53;27.50;;;;;;;;;;4985379;28;20188;-43
2022/10/06 10:56:27;;;;;;;34.67;27.13;;;;;;;;;;4986869;28;20468;-43
2022/10/06 10:59:03;;;;;;;33.20;26.77;;;;;;;;;;4990389;28;20173;-43
2022/10/06 11:01:37;;;;;;;39.50;30.97;;;;;;;;;;4990694;28;20187;-44
2022/10/06 11:04:03;;;;;;;35.20;30.83;;;;;;;;;;4989459;28;20212;-42
2022/10/06 11:06:48;;;;;;;36.53;28.33;;;;;;;;;;4988690;28;20185;-45
2022/10/06 11:09:18;;;;;;;35.90;29.33;;;;;;;;;;4985700;28;20617;-42
2022/10/06 11:11:47;;;;;;;37.87;29.57;;;;;;;;;;4987035;28;20560;-42
2022/10/06 11:14:32;;;;;;;35.77;29.07;;;;;;;;;;4990537;28;20180;-42
2022/10/06 11:17:03;;;;;;;38.67;31.20;;;;;;;;;;4988661;28;20375;-43
2022/10/06 11:19:52;;;;;;;35.20;28.60;;;;;;;;;;4986793;28;20180;-43
2022/10/06 11:22:29;;;;;;;33.97;24.10;;;;;;;;;;4987754;28;20169;-43
2022/10/06 11:24:56;;;;;;;31.13;25.97;;;;;;;;;;4992439;28;20176;-43
2022/10/06 11:27:43;;;;;;;31.70;26.47;;;;;;;;;;4992324;28;20203;-43
2022/10/06 11:30:15;;;;;;;33.67;26.10;;;;;;;;;;4988016;28;21063;-43
2022/10/06 11:33:00;;;;;;;36.60;27.07;;;;;;;;;;4991891;28;20292;-43
2022/10/06 11:35:28;;;;;;;32.73;25.57;;;;;;;;;;4991763;28;20178;-43
2022/10/06 11:37:54;;;;;;;30.87;24.30;;;;;;;;;;4991773;28;20247;-43
2022/10/06 11:40:20;;;;;;;30.37;24.83;;;;;;;;;;4987259;28;20188;-43
2022/10/06 11:43:01;;;;;;;31.07;25.50;;;;;;;;;;4990941;28;20192;-43
2022/10/06 11:45:31;;;;;;;30.37;25.63;;;;;;;;;;4990526;28;21132;-42
2022/10/06 11:48:13;;;;;;;31.43;23.93;;;;;;;;;;4984135;28;20220;-43
2022/10/06 11:50:43;;;;;;;30.53;23.23;;;;;;;;;;4985106;28;20471;-43
2022/10/06 11:53:28;;;;;;;30.43;22.30;;;;;;;;;;4987801;28;20807;-43
2022/10/06 11:56:14;;;;;;;27.50;22.17;;;;;;;;;;4989229;28;21154;-43
2022/10/06 11:58:52;;;;;;;23.97;19.97;;;;;;;;;;4988474;28;20363;-43
2022/10/06 12:01:31;;;;;;;25.57;20.97;;;;;;;;;;4986970;28;21009;-43
2022/10/06 12:04:04;;;;;;;21.87;18.33;;;;;;;;;;4988780;28;20589;-43
2022/10/06 12:06:43;;;;;;;24.10;19.07;;;;;;;;;;4988859;28;20562;-43
2022/10/06 12:09:27;;;;;;;31.80;22.00;;;;;;;;;;4989694;28;21168;-43
2022/10/06 12:11:53;;;;;;;24.13;19.27;;;;;;;;;;4986845;28;20725;-43
2022/10/06 12:14:29;;;;;;;21.63;19.07;;;;;;;;;;4983985;28;20189;-43
2022/10/06 12:16:58;;;;;;;22.57;19.43;;;;;;;;;;4987197;28;20511;-43
2022/10/06 12:19:30;;;;;;;25.57;19.90;;;;;;;;;;4990128;28;20701;-43
2022/10/06 12:22:06;;;;;;;29.40;20.90;;;;;;;;;;4987519;28;20514;-43
2022/10/06 12:24:40;;;;;;;24.83;21.53;;;;;;;;;;4987040;28;20186;-43
2022/10/06 12:27:18;;;;;;;25.67;20.80;;;;;;;;;;4986374;28;20258;-43
2022/10/06 12:29:50;;;;;;;26.43;20.77;;;;;;;;;;4985717;28;20659;-43
2022/10/06 12:32:34;;;;;;;24.90;19.30;;;;;;;;;;4989374;28;20184;-42
2022/10/06 12:35:00;;;;;;;19.77;16.47;;;;;;;;;;4992188;28;20193;-42
2022/10/06 12:37:29;;;;;;;25.73;18.93;;;;;;;;;;4988207;28;20181;-42
2022/10/06 12:40:14;;;;;;;25.67;19.90;;;;;;;;;;4986100;28;20262;-42
2022/10/06 12:42:40;;;;;;;23.37;18.40;;;;;;;;;;4988632;28;20228;-42
2022/10/06 12:45:13;;;;;;;22.93;16.43;;;;;;;;;;4989776;28;20344;-43
2022/10/06 12:47:42;;;;;;;20.47;15.70;;;;;;;;;;4986413;28;20787;-43
2022/10/06 12:50:14;;;;;;;25.13;16.93;;;;;;;;;;4986533;28;20740;-43
2022/10/06 12:52:44;;;;;;;19.70;16.80;;;;;;;;;;4987175;28;20289;-43
2022/10/06 12:55:30;;;;;;;19.77;16.07;;;;;;;;;;4988563;28;20673;-43
2022/10/06 12:57:57;;;;;;;21.63;14.00;;;;;;;;;;4984575;28;20184;-43
2022/10/06 13:00:33;;;;;;;18.60;14.40;;;;;;;;;;4983903;28;20371;-42
2022/10/06 13:03:02;;;;;;;20.77;15.43;;;;;;;;;;4982050;28;20183;-43
2022/10/06 13:05:28;;;;;;;17.90;14.53;;;;;;;;;;4987817;28;20211;-43
2022/10/06 13:08:05;;;;;;;17.30;14.57;;;;;;;;;;4986323;28;20213;-43
2022/10/06 13:10:31;;;;;;;18.70;15.53;;;;;;;;;;4987755;28;20176;-42
2022/10/06 13:12:58;;;;;;;20.83;16.40;;;;;;;;;;4983850;28;20185;-43
2022/10/06 13:15:40;;;;;;;24.07;17.77;;;;;;;;;;4984377;28;21060;-43
2022/10/06 13:18:09;;;;;;;19.00;16.63;;;;;;;;;;4987538;28;20173;-42
2022/10/06 13:20:38;;;;;;;17.40;15.17;;;;;;;;;;4986769;28;20834;-43
2022/10/06 13:23:17;;;;;;;19.53;14.73;;;;;;;;;;4984571;28;20189;-42
2022/10/06 13:25:48;;;;;;;16.00;13.47;;;;;;;;;;4983141;28;20619;-43
2022/10/06 13:28:26;;;;;;;19.07;13.60;;;;;;;;;;4987243;28;20327;-43
2022/10/06 13:30:59;;;;;;;17.67;13.10;;;;;;;;;;4988543;28;20238;-42
2022/10/06 13:33:34;;;;;;;16.77;12.50;;;;;;;;;;4988606;28;20497;-43
2022/10/06 13:36:01;;;;;;;13.67;11.53;;;;;;;;;;4985434;28;20906;-43
2022/10/06 13:38:33;;;;;;;19.20;12.30;;;;;;;;;;4987119;28;20282;-43
2022/10/06 13:41:12;;;;;;;14.37;11.40;;;;;;;;;;4990496;28;20181;-43
2022/10/06 13:43:40;;;;;;;15.07;11.50;;;;;;;;;;4992146;28;20173;-43
2022/10/06 13:46:07;;;;;;;12.77;9.80;;;;;;;;;;4990626;28;20212;-43
2022/10/06 13:48:34;;;;;;;15.40;10.83;;;;;;;;;;4988119;28;20627;-42
2022/10/06 13:51:02;;;;;;;17.30;11.67;;;;;;;;;;4989598;28;20517;-42
2022/10/06 13:53:29;;;;;;;13.33;10.87;;;;;;;;;;4990691;28;20419;-42
2022/10/06 13:55:56;;;;;;;16.10;11.90;;;;;;;;;;4990156;28;20248;-42
2022/10/06 13:58:26;;;;;;;17.37;12.60;;;;;;;;;;4990307;28;20354;-42
2022/10/06 14:00:55;;;;;;;18.27;12.10;;;;;;;;;;4987730;28;20702;-42
2022/10/06 14:03:36;;;;;;;14.57;10.80;;;;;;;;;;4986071;28;20790;-42
2022/10/06 14:06:07;;;;;;;17.83;11.67;;;;;;;;;;4993484;28;20203;-43
2022/10/06 14:08:34;;;;;;;14.20;10.30;;;;;;;;;;4993845;28;20231;-42
2022/10/06 14:11:04;;;;;;;14.87;10.10;;;;;;;;;;4989685;28;20172;-42
2022/10/06 14:13:32;;;;;;;13.37;8.90;;;;;;;;;;4985077;28;20185;-42
2022/10/06 14:16:02;;;;;;;12.47;9.10;;;;;;;;;;4985902;28;20181;-42
2022/10/06 14:18:37;;;;;;;11.33;9.07;;;;;;;;;;4990087;28;20592;-43
2022/10/06 14:21:26;;;;;;;11.67;8.87;;;;;;;;;;4991689;28;20419;-43
2022/10/06 14:23:53;;;;;;;15.30;9.87;;;;;;;;;;4988936;28;20191;-42
2022/10/06 14:26:23;;;;;;;15.67;8.90;;;;;;;;;;5000178;28;20213;-42
2022/10/06 14:28:51;;;;;;;17.17;9.93;;;;;;;;;;4985681;28;20232;-42
2022/10/06 14:31:17;;;;;;;15.13;10.50;;;;;;;;;;4987465;28;20417;-41
2022/10/06 14:33:45;;;;;;;13.83;11.10;;;;;;;;;;4989141;28;20185;-42
2022/10/06 14:36:30;;;;;;;14.87;11.77;;;;;;;;;;4986138;28;20169;-42
2022/10/06 14:38:57;;;;;;;13.10;9.90;;;;;;;;;;4983699;28;20639;-42
2022/10/06 14:41:26;;;;;;;13.40;9.53;;;;;;;;;;4986827;28;20578;-42
2022/10/06 14:44:09;;;;;;;16.90;11.93;;;;;;;;;;4990676;28;20209;-42
2022/10/06 14:46:35;;;;;;;11.00;8.33;;;;;;;;;;4991012;28;20273;-42